createdAt,value
2024-01-11T00:01:47.313Z,102513.22
2024-01-11T00:04:15.284Z,102513.06
2024-01-11T00:06:45.076Z,102509.28
2024-01-11T00:09:13.561Z,102510.00
2024-01-11T00:11:41.705Z,102496.97
2024-01-11T00:14:09.788Z,102499.56
2024-01-11T00:16:37.627Z,102508.00
2024-01-11T00:19:06.086Z,102497.56
2024-01-11T00:21:33.997Z,102496.63
2024-01-11T00:24:03.211Z,102483.78
2024-01-11T00:26:31.071Z,102488.75
2024-01-11T00:28:59.280Z,102483.44
2024-01-11T00:31:27.077Z,102487.13
2024-01-11T00:33:54.982Z,102482.72
2024-01-11T00:36:22.969Z,102479.97
2024-01-11T00:38:51.567Z,102478.16
2024-01-11T00:41:20.768Z,102485.88
2024-01-11T00:43:48.842Z,102489.34
2024-01-11T00:46:16.672Z,102491.03
2024-01-11T00:48:44.679Z,102483.31
2024-01-11T00:51:12.730Z,102480.56
2024-01-11T00:53:40.980Z,102489.19
2024-01-11T00:56:17.599Z,102484.78
2024-01-11T00:58:46.948Z,102478.56
2024-01-11T01:01:15.195Z,102486.25
2024-01-11T01:03:43.183Z,102485.38
2024-01-11T01:06:11.398Z,102482.63
2024-01-11T01:08:39.411Z,102474.00
2024-01-11T01:11:07.843Z,102471.28
2024-01-11T01:13:35.700Z,102471.44
2024-01-11T01:16:05.341Z,102466.31
2024-01-11T01:18:33.342Z,102474.19
2024-01-11T01:21:01.229Z,102462.06
2024-01-11T01:23:29.488Z,102459.31
2024-01-11T01:25:57.855Z,102450.72
2024-01-11T01:28:25.698Z,102455.84
2024-01-11T01:30:54.507Z,102455.09
2024-01-11T01:33:24.114Z,102450.88
2024-01-11T01:35:52.017Z,102460.22
2024-01-11T01:38:20.004Z,102461.00
2024-01-11T01:40:47.847Z,102466.13
2024-01-11T01:43:15.812Z,102479.88
2024-01-11T01:45:43.657Z,102474.91
2024-01-11T01:48:11.830Z,102467.03
2024-01-11T01:50:41.484Z,102471.28
2024-01-11T01:53:09.685Z,102466.69
2024-01-11T01:55:37.645Z,102467.47
2024-01-11T01:58:06.486Z,102481.94
2024-01-11T02:00:34.361Z,102481.75
2024-01-11T02:03:02.850Z,102462.72
2024-01-11T02:05:30.957Z,102460.91
2024-01-11T02:08:03.221Z,102461.63
2024-01-11T02:10:34.983Z,102453.75
2024-01-11T02:13:02.828Z,102451.19
2024-01-11T02:15:30.673Z,102461.47
2024-01-11T02:17:58.679Z,102475.97
2024-01-11T02:20:26.625Z,102471.56
2024-01-11T02:23:00.268Z,102458.72
2024-01-11T02:25:29.458Z,102460.38
2024-01-11T02:27:57.255Z,102442.56
2024-01-11T02:30:25.314Z,102445.16
2024-01-11T02:32:54.903Z,102444.38
2024-01-11T02:35:23.749Z,102445.16
2024-01-11T02:37:52.482Z,102439.25
2024-01-11T02:40:21.501Z,102425.31
2024-01-11T02:42:50.917Z,102423.66
2024-01-11T02:45:20.054Z,102419.13
2024-01-11T02:47:48.000Z,102417.28
2024-01-11T02:50:16.280Z,102410.34
2024-01-11T02:52:44.516Z,102429.03
2024-01-11T02:55:12.361Z,102429.94
2024-01-11T02:57:40.199Z,102413.63
2024-01-11T03:00:10.336Z,102424.69
2024-01-11T03:02:39.926Z,102429.63
2024-01-11T03:05:08.357Z,102407.44
2024-01-11T03:07:36.234Z,102421.00
2024-01-11T03:10:04.134Z,102424.34
2024-01-11T03:12:31.966Z,102425.97
2024-01-11T03:14:59.793Z,102432.22
2024-01-11T03:17:29.203Z,102429.63
2024-01-11T03:19:57.183Z,102441.72
2024-01-11T03:22:25.030Z,102452.94
2024-01-11T03:24:52.877Z,102433.09
2024-01-11T03:27:20.812Z,102441.72
2024-01-11T03:29:48.691Z,102451.81
2024-01-11T03:32:16.617Z,102445.06
2024-01-11T03:34:45.993Z,102451.81
2024-01-11T03:37:13.834Z,102457.91
2024-01-11T03:39:41.664Z,102460.28
2024-01-11T03:42:09.496Z,102465.25
2024-01-11T03:44:38.969Z,102458.28
2024-01-11T03:47:07.761Z,102464.34
2024-01-11T03:49:35.688Z,102474.47
2024-01-11T03:52:05.128Z,102460.69
2024-01-11T03:54:33.038Z,102467.66
2024-01-11T03:57:00.964Z,102459.94
2024-01-11T03:59:28.858Z,102449.69
2024-01-11T04:01:57.877Z,102455.53
2024-01-11T04:04:26.085Z,102462.16
2024-01-11T04:06:54.304Z,102445.69
2024-01-11T04:09:23.507Z,102447.19
2024-01-11T04:11:51.352Z,102454.13
2024-01-11T04:14:19.265Z,102443.84
2024-01-11T04:16:47.237Z,102452.31
2024-01-11T04:19:16.310Z,102452.88
2024-01-11T04:21:45.753Z,102451.97
2024-01-11T04:24:13.801Z,102448.69
2024-01-11T04:26:43.012Z,102439.13
2024-01-11T04:29:10.878Z,102431.25
2024-01-11T04:31:38.761Z,102438.06
2024-01-11T04:34:07.133Z,102444.09
2024-01-11T04:36:35.054Z,102455.09
2024-01-11T04:39:03.308Z,102452.53
2024-01-11T04:41:31.174Z,102447.38
2024-01-11T04:44:00.451Z,102447.25
2024-01-11T04:46:28.340Z,102453.28
2024-01-11T04:48:56.237Z,102448.16
2024-01-11T04:51:24.100Z,102449.06
2024-01-11T04:53:51.983Z,102444.09
2024-01-11T04:56:19.969Z,102448.16
2024-01-11T04:58:48.546Z,102444.69
2024-01-11T05:01:18.842Z,102450.56
2024-01-11T05:03:48.540Z,102434.97
2024-01-11T05:06:20.547Z,102435.88
2024-01-11T05:08:49.079Z,102440.09
2024-01-11T05:11:18.423Z,102434.06
2024-01-11T05:13:48.786Z,102446.16
2024-01-11T05:16:23.770Z,102457.19
2024-01-11T05:18:52.182Z,102454.63
2024-01-11T05:21:20.200Z,102454.44
2024-01-11T05:23:48.073Z,102468.00
2024-01-11T05:26:17.517Z,102469.66
2024-01-11T05:28:45.471Z,102476.28
2024-01-11T05:31:14.807Z,102465.84
2024-01-11T05:33:44.632Z,102466.75
2024-01-11T05:36:12.893Z,102458.16
2024-01-11T05:38:42.051Z,102432.66
2024-01-11T05:41:10.703Z,102434.44
2024-01-11T05:43:40.202Z,102438.84
2024-01-11T05:46:08.968Z,102421.78
2024-01-11T05:48:37.344Z,102428.59
2024-01-11T05:51:07.234Z,102430.44
2024-01-11T05:53:37.231Z,102424.34
2024-01-11T05:56:09.877Z,102417.00
2024-01-11T05:58:39.468Z,102402.84
2024-01-11T06:01:07.516Z,102382.28
2024-01-11T06:03:36.084Z,102387.59
2024-01-11T06:06:07.368Z,102397.13
2024-01-11T06:08:35.505Z,102398.94
2024-01-11T06:11:03.432Z,102399.13
2024-01-11T06:13:31.293Z,102402.75
2024-01-11T06:15:59.148Z,102392.66
2024-01-11T06:18:27.191Z,102372.09
2024-01-11T06:20:55.136Z,102381.66
2024-01-11T06:23:26.319Z,102412.63
2024-01-11T06:25:54.297Z,102415.03
2024-01-11T06:28:22.197Z,102410.06
2024-01-11T06:30:50.105Z,102401.78
2024-01-11T06:33:18.401Z,102425.81
2024-01-11T06:35:46.666Z,102408.75
2024-01-11T06:38:14.934Z,102407.44
2024-01-11T06:40:44.464Z,102413.63
2024-01-11T06:43:12.700Z,102407.16
2024-01-11T06:45:40.994Z,102398.91
2024-01-11T06:48:09.125Z,102399.06
2024-01-11T06:50:37.205Z,102406.19
2024-01-11T06:53:05.850Z,102413.88
2024-01-11T06:55:33.973Z,102419.94
2024-01-11T06:58:03.414Z,102426.72
2024-01-11T07:00:31.424Z,102437.91
2024-01-11T07:02:59.442Z,102434.44
2024-01-11T07:05:27.538Z,102426.72
2024-01-11T07:07:55.471Z,102418.13
2024-01-11T07:10:24.061Z,102423.44
2024-01-11T07:12:51.981Z,102423.44
2024-01-11T07:15:21.205Z,102424.16
2024-01-11T07:17:49.159Z,102437.91
2024-01-11T07:20:17.996Z,102442.16
2024-01-11T07:22:45.983Z,102441.41
2024-01-11T07:25:15.436Z,102439.94
2024-01-11T07:27:43.325Z,102452.03
2024-01-11T07:30:14.687Z,102453.13
2024-01-11T07:32:44.138Z,102442.06
2024-01-11T07:35:16.483Z,102436.94
2024-01-11T07:37:46.982Z,102436.03
2024-01-11T07:40:15.065Z,102438.78
2024-01-11T07:42:43.158Z,102440.59
2024-01-11T07:45:12.249Z,102427.94
2024-01-11T07:47:40.806Z,102429.91
2024-01-11T07:50:11.944Z,102442.03
2024-01-11T07:52:42.623Z,102451.53
2024-01-11T07:55:14.013Z,102454.44
2024-01-11T07:57:43.047Z,102472.78
2024-01-11T08:00:11.879Z,102453.47
2024-01-11T08:02:42.794Z,102457.97
2024-01-11T08:05:12.263Z,102453.16
2024-01-11T08:07:40.168Z,102451.84
2024-01-11T08:10:10.366Z,102452.94
2024-01-11T08:12:38.791Z,102443.91
2024-01-11T08:15:07.559Z,102432.09
2024-01-11T08:17:36.321Z,102430.03
2024-01-11T08:20:09.171Z,102417.66
2024-01-11T08:22:39.052Z,102413.75
2024-01-11T08:25:07.668Z,102404.69
2024-01-11T08:27:36.005Z,102421.41
2024-01-11T08:30:05.945Z,102421.28
2024-01-11T08:32:40.325Z,102441.44
2024-01-11T08:35:11.184Z,102428.91
2024-01-11T08:37:40.743Z,102436.34
2024-01-11T08:40:10.733Z,102435.94
2024-01-11T08:42:39.117Z,102437.34
2024-01-11T08:45:08.673Z,102439.63
2024-01-11T08:47:39.652Z,102447.25
2024-01-11T08:50:08.878Z,102448.06
2024-01-11T08:52:36.830Z,102444.66
2024-01-11T08:55:07.087Z,102442.84
2024-01-11T08:57:36.748Z,102433.22
2024-01-11T09:00:07.365Z,102424.28
2024-01-11T09:02:36.451Z,102433.13
2024-01-11T09:05:06.212Z,102432.72
2024-01-11T09:07:37.147Z,102447.19
2024-01-11T09:10:10.172Z,102448.75
2024-01-11T09:12:38.303Z,102446.22
2024-01-11T09:15:06.767Z,102437.56
2024-01-11T09:17:34.792Z,102436.84
2024-01-11T09:20:02.849Z,102439.25
2024-01-11T09:22:30.831Z,102447.75
2024-01-11T09:24:59.132Z,102441.38
2024-01-11T09:27:28.551Z,102446.34
2024-01-11T09:29:57.576Z,102419.28
2024-01-11T09:32:26.849Z,102426.69
2024-01-11T09:34:54.873Z,102416.75
2024-01-11T09:37:22.872Z,102428.38
2024-01-11T09:39:50.657Z,102417.69
2024-01-11T09:42:20.707Z,102411.25
2024-01-11T09:44:50.110Z,102401.41
2024-01-11T09:47:19.466Z,102404.63
2024-01-11T09:49:48.805Z,102410.59
2024-01-11T09:52:18.742Z,102396.63
2024-01-11T09:54:46.655Z,102400.97
2024-01-11T09:57:17.998Z,102384.63
2024-01-11T09:59:46.409Z,102393.03
2024-01-11T10:02:16.263Z,102382.34
2024-01-11T10:04:44.989Z,102389.38
2024-01-11T10:07:13.271Z,102383.94
2024-01-11T10:09:41.370Z,102370.84
2024-01-11T10:12:11.054Z,102375.00
2024-01-11T10:14:39.003Z,102363.34
2024-01-11T10:17:06.993Z,102358.41
2024-01-11T10:19:36.725Z,102364.22
2024-01-11T10:22:06.045Z,102369.28
2024-01-11T10:24:34.088Z,102367.22
2024-01-11T10:27:05.315Z,102363.47
2024-01-11T10:29:34.166Z,102360.59
2024-01-11T10:32:02.111Z,102360.22
2024-01-11T10:34:29.965Z,102376.44
2024-01-11T10:37:02.420Z,102388.50
2024-01-11T10:39:32.752Z,102398.22
2024-01-11T10:42:07.700Z,102399.91
2024-01-11T10:44:37.121Z,102416.53
2024-01-11T10:47:08.646Z,102408.31
2024-01-11T10:49:41.906Z,102396.75
2024-01-11T10:52:14.772Z,102404.28
2024-01-11T10:54:44.446Z,102409.47
2024-01-11T10:57:14.715Z,102406.44
2024-01-11T10:59:44.664Z,102389.28
2024-01-11T11:02:15.988Z,102396.19
2024-01-11T11:04:45.696Z,102382.03
2024-01-11T11:07:17.008Z,102388.13
2024-01-11T11:09:46.863Z,102375.16
2024-01-11T11:12:16.239Z,102383.31
2024-01-11T11:14:45.462Z,102368.75
2024-01-11T11:17:13.584Z,102355.91
2024-01-11T11:19:41.580Z,102342.09
2024-01-11T11:22:09.435Z,102336.16
2024-01-11T11:24:38.770Z,102324.19
2024-01-11T11:27:08.411Z,102338.19
2024-01-11T11:29:36.915Z,102344.44
2024-01-11T11:34:43.676Z,102338.69
2024-01-11T11:37:11.916Z,102337.13
2024-01-11T11:39:43.889Z,102325.97
2024-01-11T11:42:12.128Z,102316.47
2024-01-11T11:44:50.231Z,102323.34
2024-01-11T11:47:22.738Z,102309.22
2024-01-11T11:50:10.707Z,102302.69
2024-01-11T11:52:40.582Z,102311.38
2024-01-11T11:55:10.712Z,102325.97
2024-01-11T11:57:38.763Z,102331.78
2024-01-11T12:00:08.156Z,102328.06
2024-01-11T12:02:42.616Z,102325.31
2024-01-11T12:05:10.766Z,102336.28
2024-01-11T12:07:38.729Z,102345.91
2024-01-11T12:10:07.722Z,102351.50
2024-01-11T12:12:38.032Z,102360.63
2024-01-11T12:15:07.028Z,102370.88
2024-01-11T12:17:34.969Z,102369.97
2024-01-11T12:20:02.946Z,102365.03
2024-01-11T12:22:30.867Z,102362.31
2024-01-11T12:24:58.811Z,102362.06
2024-01-11T12:27:27.856Z,102356.75
2024-01-11T12:29:59.715Z,102348.06
2024-01-11T12:32:29.065Z,102340.13
2024-01-11T12:34:57.429Z,102346.91
2024-01-11T12:37:25.833Z,102353.41
2024-01-11T12:39:59.914Z,102349.66
2024-01-11T12:42:28.126Z,102359.78
2024-01-11T12:44:59.378Z,102368.06
2024-01-11T12:47:28.011Z,102364.31
2024-01-11T12:49:56.266Z,102371.84
2024-01-11T12:52:25.314Z,102360.44
2024-01-11T12:54:54.388Z,102347.47
2024-01-11T12:57:23.880Z,102334.75
2024-01-11T12:59:51.868Z,102324.22
2024-01-11T13:02:22.096Z,102325.94
2024-01-11T13:04:52.376Z,102322.31
2024-01-11T13:07:24.294Z,102321.25
2024-01-11T13:09:52.214Z,102326.34
2024-01-11T13:12:22.138Z,102325.28
2024-01-11T13:14:52.096Z,102327.66
2024-01-11T13:17:21.523Z,102322.19
2024-01-11T13:19:49.730Z,102314.41
2024-01-11T13:22:17.592Z,102329.84
2024-01-11T13:24:45.791Z,102327.25
2024-01-11T13:27:13.642Z,102328.94
2024-01-11T13:29:41.511Z,102333.34
2024-01-11T13:32:11.937Z,102335.94
2024-01-11T13:34:41.232Z,102337.75
2024-01-11T13:37:09.148Z,102343.84
2024-01-11T13:39:37.318Z,102339.56
2024-01-11T13:42:10.330Z,102326.47
2024-01-11T13:44:38.594Z,102330.88
2024-01-11T13:47:06.828Z,102333.47
2024-01-11T13:49:35.819Z,102332.84
2024-01-11T13:52:05.963Z,102337.09
2024-01-11T13:54:33.867Z,102345.00
2024-01-11T13:57:03.831Z,102343.31
2024-01-11T13:59:31.772Z,102347.88
2024-01-11T14:02:00.080Z,102340.97
2024-01-11T14:04:27.958Z,102331.53
2024-01-11T14:06:55.951Z,102322.19
2024-01-11T14:09:25.261Z,102317.09
2024-01-11T14:11:53.534Z,102311.13
2024-01-11T14:14:21.992Z,102303.34
2024-01-11T14:16:50.258Z,102311.91
2024-01-11T14:19:18.255Z,102305.03
2024-01-11T14:21:46.261Z,102311.13
2024-01-11T14:24:14.670Z,102308.66
2024-01-11T14:26:44.690Z,102320.72
2024-01-11T14:29:13.190Z,102314.75
2024-01-11T14:31:41.200Z,102307.88
2024-01-11T14:34:09.374Z,102302.03
2024-01-11T14:36:37.885Z,102304.63
2024-01-11T14:39:06.739Z,102320.31
2024-01-11T14:41:34.914Z,102316.97
2024-01-11T14:44:04.960Z,102319.81
2024-01-11T14:46:32.862Z,102325.09
2024-01-11T14:49:01.866Z,102322.75
2024-01-11T14:51:32.183Z,102325.47
2024-01-11T14:54:00.309Z,102315.34
2024-01-11T14:56:28.421Z,102329.22
2024-01-11T14:58:56.232Z,102312.88
2024-01-11T15:01:25.574Z,102312.34
2024-01-11T15:03:53.607Z,102306.50
2024-01-11T15:06:22.212Z,102301.44
2024-01-11T15:08:50.346Z,102295.56
2024-01-11T15:11:18.602Z,102303.47
2024-01-11T15:13:46.465Z,102298.41
2024-01-11T15:16:14.422Z,102300.25
2024-01-11T15:18:43.839Z,102295.19
2024-01-11T15:21:11.794Z,102308.25
2024-01-11T15:23:40.224Z,102298.78
2024-01-11T15:26:08.385Z,102292.94
2024-01-11T15:28:36.598Z,102297.59
2024-01-11T15:31:04.664Z,102296.78
2024-01-11T15:33:32.620Z,102302.13
2024-01-11T15:36:02.655Z,102290.97
2024-01-11T15:38:30.631Z,102290.28
2024-01-11T15:40:58.624Z,102279.13
2024-01-11T15:43:26.499Z,102283.50
2024-01-11T15:45:54.394Z,102277.66
2024-01-11T15:48:22.334Z,102281.16
2024-01-11T15:50:50.690Z,102279.59
2024-01-11T15:53:20.008Z,102281.53
2024-01-11T15:55:47.930Z,102277.34
2024-01-11T15:58:15.790Z,102274.88
2024-01-11T16:00:44.799Z,102278.63
2024-01-11T16:03:13.027Z,102279.53
2024-01-11T16:05:41.263Z,102280.56
2024-01-11T16:08:09.210Z,102277.16
2024-01-11T16:10:38.432Z,102288.50
2024-01-11T16:13:06.410Z,102276.53
2024-01-11T16:15:34.818Z,102275.72
2024-01-11T16:18:02.938Z,102287.38
2024-01-11T16:20:30.946Z,102296.09
2024-01-11T16:22:58.823Z,102297.00
2024-01-11T16:25:26.662Z,102294.66
2024-01-11T16:27:55.855Z,102304.25
2024-01-11T16:30:24.288Z,102294.78
2024-01-11T16:32:52.229Z,102300.22
2024-01-11T16:35:21.526Z,102302.00
2024-01-11T16:37:49.394Z,102302.13
2024-01-11T16:40:17.635Z,102304.09
2024-01-11T16:42:45.693Z,102305.88
2024-01-11T16:45:15.156Z,102314.56
2024-01-11T16:47:43.083Z,102308.72
2024-01-11T16:50:11.517Z,102305.34
2024-01-11T16:52:39.874Z,102299.47
2024-01-11T16:55:09.122Z,102305.56
2024-01-11T16:57:37.231Z,102305.69
2024-01-11T17:00:08.297Z,102314.50
2024-01-11T17:02:37.623Z,102308.66
2024-01-11T17:05:06.227Z,102304.47
2024-01-11T17:07:34.492Z,102312.53
2024-01-11T17:10:03.253Z,102316.13
2024-01-11T17:12:31.170Z,102322.47
2024-01-11T17:15:00.253Z,102316.38
2024-01-11T17:17:28.529Z,102314.81
2024-01-11T17:19:57.818Z,102314.03
2024-01-11T17:22:25.728Z,102316.75
2024-01-11T17:24:53.586Z,102311.66
2024-01-11T17:27:21.442Z,102312.81
2024-01-11T17:29:49.684Z,102312.00
2024-01-11T17:32:17.753Z,102317.31
2024-01-11T17:34:52.732Z,102323.53
2024-01-11T17:37:22.557Z,102311.47
2024-01-11T17:39:51.322Z,102316.09
2024-01-11T17:42:20.023Z,102306.59
2024-01-11T17:44:48.108Z,102318.06
2024-01-11T17:47:16.121Z,102322.44
2024-01-11T17:49:44.225Z,102319.06
2024-01-11T17:52:12.166Z,102325.28
2024-01-11T17:54:41.783Z,102326.19
2024-01-11T17:57:09.733Z,102320.31
2024-01-11T17:59:37.665Z,102331.75
2024-01-11T18:02:05.737Z,102337.06
2024-01-11T18:04:33.611Z,102343.16
2024-01-11T18:07:01.814Z,102348.50
2024-01-11T18:09:29.763Z,102348.63
2024-01-11T18:11:59.031Z,102346.91
2024-01-11T18:14:27.071Z,102354.72
2024-01-11T18:16:55.089Z,102355.78
2024-01-11T18:19:23.091Z,102353.25
2024-01-11T18:21:51.109Z,102355.97
2024-01-11T18:24:19.088Z,102356.91
2024-01-11T18:26:47.072Z,102360.53
2024-01-11T18:29:15.490Z,102361.53
2024-01-11T18:31:43.421Z,102362.56
2024-01-11T18:34:11.439Z,102359.19
2024-01-11T18:36:47.218Z,102355.00
2024-01-11T18:39:16.819Z,102360.44
2024-01-11T18:41:44.740Z,102356.13
2024-01-11T18:44:13.715Z,102360.56
2024-01-11T18:46:44.170Z,102352.88
2024-01-11T18:49:12.149Z,102355.69
2024-01-11T18:51:44.212Z,102366.22
2024-01-11T18:54:12.047Z,102367.13
2024-01-11T18:56:40.169Z,102374.13
2024-01-11T18:59:08.337Z,102364.66
2024-01-11T19:01:36.270Z,102351.72
2024-01-11T19:04:06.212Z,102360.47
2024-01-11T19:06:34.200Z,102364.09
2024-01-11T19:09:02.539Z,102352.78
2024-01-11T19:11:30.882Z,102357.28
2024-01-11T19:13:59.142Z,102356.50
2024-01-11T19:16:26.990Z,102351.31
2024-01-11T19:18:55.158Z,102347.00
2024-01-11T19:21:24.825Z,102347.09
2024-01-11T19:23:53.058Z,102341.13
2024-01-11T19:26:21.067Z,102349.03
2024-01-11T19:28:49.572Z,102362.16
2024-01-11T19:31:18.159Z,102356.06
2024-01-11T19:33:46.261Z,102350.06
2024-01-11T19:36:14.575Z,102357.06
2024-01-11T19:38:43.847Z,102358.00
2024-01-11T19:41:11.932Z,102364.09
2024-01-11T19:43:46.903Z,102374.63
2024-01-11T19:46:18.527Z,102375.53
2024-01-11T19:48:46.794Z,102372.94
2024-01-11T19:51:14.834Z,102379.84
2024-01-11T19:53:44.313Z,102381.63
2024-01-11T19:56:19.328Z,102381.63
2024-01-11T19:58:47.613Z,102386.06
2024-01-11T20:01:16.289Z,102388.78
2024-01-11T20:03:44.389Z,102390.50
2024-01-11T20:06:13.574Z,102391.41
2024-01-11T20:08:41.817Z,102400.22
2024-01-11T20:11:11.306Z,102393.31
2024-01-11T20:13:39.396Z,102395.91
2024-01-11T20:16:09.296Z,102403.72
2024-01-11T20:18:37.827Z,102408.28
2024-01-11T20:21:11.780Z,102402.16
2024-01-11T20:23:43.856Z,102404.78
2024-01-11T20:26:14.959Z,102405.78
2024-01-11T20:28:43.187Z,102396.16
2024-01-11T20:31:11.574Z,102404.19
2024-01-11T20:33:39.992Z,102398.09
2024-01-11T20:36:08.973Z,102398.09
2024-01-11T20:38:37.603Z,102408.50
2024-01-11T20:41:06.163Z,102406.03
2024-01-11T20:43:35.499Z,102406.03
2024-01-11T20:46:04.282Z,102407.81
2024-01-11T20:48:32.391Z,102419.13
2024-01-11T20:51:00.577Z,102414.03
2024-01-11T20:53:28.477Z,102413.94
2024-01-11T20:55:57.736Z,102416.75
2024-01-11T20:58:25.643Z,102415.88
2024-01-11T21:00:54.964Z,102409.75
2024-01-11T21:03:22.946Z,102417.69
2024-01-11T21:05:54.965Z,102414.28
2024-01-11T21:08:23.144Z,102409.06
2024-01-11T21:10:51.125Z,102418.59
2024-01-11T21:13:19.118Z,102421.19
2024-01-11T21:15:46.966Z,102407.28
2024-01-11T21:18:16.601Z,102416.00
2024-01-11T21:20:45.445Z,102416.09
2024-01-11T21:23:14.531Z,102417.91
2024-01-11T21:25:42.364Z,102423.91
2024-01-11T21:28:15.077Z,102423.09
2024-01-11T21:30:43.150Z,102421.31
2024-01-11T21:33:11.273Z,102417.00
2024-01-11T21:35:40.544Z,102430.94
2024-01-11T21:38:09.450Z,102419.59
2024-01-11T21:40:39.189Z,102423.09
2024-01-11T21:43:08.694Z,102426.66
2024-01-11T21:45:37.730Z,102423.09
2024-01-11T21:48:06.427Z,102426.66
2024-01-11T21:50:35.822Z,102423.91
2024-01-11T21:53:05.404Z,102423.09
2024-01-11T21:55:33.925Z,102431.03
2024-01-11T21:58:01.843Z,102424.03
2024-01-11T22:00:29.696Z,102425.72
2024-01-11T22:02:57.707Z,102425.72
2024-01-11T22:05:26.101Z,102424.03
2024-01-11T22:07:54.420Z,102437.84
2024-01-11T22:10:24.962Z,102435.25
2024-01-11T22:12:53.442Z,102440.44
2024-01-11T22:15:21.861Z,102440.44
2024-01-11T22:17:50.349Z,102437.72
2024-01-11T22:20:18.814Z,102445.53
2024-01-11T22:22:46.041Z,102440.44
2024-01-11T22:25:13.899Z,102449.06
2024-01-11T22:27:43.093Z,102448.25
2024-01-11T22:30:14.772Z,102437.84
2024-01-11T22:32:42.901Z,102443.06
2024-01-11T22:35:10.867Z,102444.75
2024-01-11T22:37:39.364Z,102439.56
2024-01-11T22:40:08.703Z,102433.53
2024-01-11T22:42:36.945Z,102436.06
2024-01-11T22:45:06.988Z,102432.63
2024-01-11T22:47:34.980Z,102430.84
2024-01-11T22:50:02.914Z,102435.13
2024-01-11T22:52:30.794Z,102427.31
2024-01-11T22:54:58.836Z,102440.31
2024-01-11T22:57:26.747Z,102427.31
2024-01-11T22:59:55.467Z,102427.31
2024-01-11T23:02:24.698Z,102429.00
2024-01-11T23:04:52.565Z,102427.19
2024-01-11T23:07:20.370Z,102435.00
2024-01-11T23:09:48.560Z,102429.78
2024-01-11T23:12:16.493Z,102429.91
2024-01-11T23:14:44.886Z,102428.13
2024-01-11T23:17:12.789Z,102422.91
2024-01-11T23:19:42.663Z,102417.69
2024-01-11T23:22:10.495Z,102413.25
2024-01-11T23:24:38.320Z,102411.69
2024-01-11T23:27:07.129Z,102413.38
2024-01-11T23:29:34.950Z,102415.88
2024-01-11T23:32:02.805Z,102415.09
2024-01-11T23:34:30.656Z,102417.69
2024-01-11T23:37:00.145Z,102423.69
2024-01-11T23:39:28.015Z,102429.78
2024-01-11T23:41:56.035Z,102428.13
2024-01-11T23:44:23.962Z,102423.81
2024-01-11T23:46:51.829Z,102412.50
2024-01-11T23:49:19.807Z,102416.88
2024-01-11T23:51:47.799Z,102414.16
2024-01-11T23:54:17.025Z,102416.88
2024-01-11T23:56:44.973Z,102413.38
2024-01-11T23:59:13.908Z,102414.28
